Latest Coastal Weather Observations for Rottnest Island

IDW60701

Issued at 2:23 am WST Tuesday 26 September 2017 (issued every 10 minutes, with the page automatically refreshed every 10 minutes)

About coastal observations | Map of coastal stations | Coastal observations for WA | Marine services | Other Formats
Station Details ID: 009193 Name: ROTTNEST ISLAND Lat: -32.01 Lon: 115.50 Height: 43.1 m
Data from the previous 72 hours. | See also: Recent months at Rottnest Island
Date/Time
WST
Temp
°C
Wind Pressure Rain since
9am
mm
Weather Cloud Vis
km
Sea
Height
m
Swell
Dir  Spd
kts
Gust
kts
hPa Trend Height
m
Period
s
Dir
26/02:00am 13.0 S 20 28 1007.8 - 3.8 - - - - - - -
26/01:30am 13.2 S 20 26 1007.8 - 3.8 - - - - - - -
26/01:00am 13.2 S 21 26 1008.0 - 3.8 - - - - - - -
26/12:30am 13.0 S 19 25 1008.0 - 3.8 - - - - - - -
26/12:00am 13.1 S 19 25 1007.9 - 3.8 - - - - - - -
 
Date/Time
WST
Temp
°C
Wind Pressure Rain since
9am
mm
Weather Cloud Vis
km
Sea
Height
m
Swell
Dir  Spd
kts
Gust
kts
hPa Trend Height
m
Period
s
Dir
25/11:30pm 12.9 S 20 27 1007.7 - 3.8 - - - - - - -
25/11:00pm 12.7 S 20 26 1007.9 - 3.8 - - - - - - -
25/10:30pm 12.8 S 22 27 1007.8 - 3.8 - - - - - - -
25/10:00pm 13.2 SSE 20 27 1007.8 - 3.8 - - - - - - -
25/09:30pm 13.4 SSE 21 26 1007.8 - 3.8 - - - - - - -
25/09:00pm 13.5 SSE 19 24 1007.7 - 3.8 - - - - - - -
25/08:30pm 13.6 SSE 21 27 1007.4 - 3.8 - - - - - - -
25/08:00pm 13.9 SSE 20 25 1007.1 - 3.8 - - - - - - -
25/07:30pm 14.0 SSE 20 27 1006.5 - 3.8 - - - - - - -
25/07:00pm 14.0 SSE 23 28 1005.9 - 3.8 - - - - - - -
25/06:30pm 14.2 SSE 21 28 1005.5 - 3.8 - - - - - - -
25/06:00pm 14.1 S 23 27 1005.3 - 3.8 - - - - - - -
25/05:30pm 14.8 S 22 28 1004.9 - 3.8 - - - - - - -
25/05:00pm 14.8 S 19 24 1004.8 - 3.8 - - - - - - -
25/04:30pm 14.8 S 18 23 1004.5 - 3.8 - - - - - - -
25/04:00pm 15.1 S 17 22 1004.2 - 3.8 - - - - - - -
25/03:30pm 15.7 S 16 21 1004.0 - 3.8 - - - - - - -
25/03:00pm 14.6 S 17 23 1003.8 - 3.8 - - - - - - -
25/02:30pm 14.3 S 17 22 1003.5 - 3.8 - - - - - - -
25/02:00pm 14.3 S 16 21 1003.5 - 3.8 - - - - - - -
25/01:30pm 14.5 S 14 18 1003.3 - 3.8 - - - - - - -
25/01:00pm 13.9 SSE 10 12 1003.5 - 3.8 - - - - - - -
25/12:30pm 12.8 SE 9 13 1003.7 - 3.8 - - - - - - -
25/12:00pm 12.1 ESE 8 14 1003.7 - 3.8 Rain - - - - - -
25/11:30am 14.4 NNE 9 13 1003.4 - 0.4 - - - - - - -
25/11:00am 13.6 NE 10 13 1003.4 - 0.4 - - - - - - -
25/10:30am 12.3 NE 9 13 1003.6 - 0.4 - - - - - - -
25/10:00am 11.7 NE 9 13 1003.5 - 0.4 - - - - - - -
25/09:30am 11.4 NE 10 13 1003.3 - 0.0 - - - - - - -
25/09:00am 11.3 ENE 10 14 1003.5 - 15.8 - - - - - - -
25/08:30am 10.8 ENE 12 16 1002.9 - 15.8 - - - - - - -
25/08:00am 10.8 E 13 19 1002.7 - 15.8 - - - - - - -
25/07:30am 10.7 E 15 21 1002.6 - 15.4 - - - - - - -
25/07:00am 11.3 ESE 11 19 1002.4 - 14.8 - - - - - - -
25/06:30am 12.6 WSW 11 17 1001.8 - 14.8 - - - - - - -
25/06:00am 12.8 NW 8 11 1001.7 - 14.8 - - - - - - -
25/05:30am 13.0 NW 11 13 1001.6 - 14.8 - - - - - - -
25/05:00am 13.2 NW 11 15 1001.5 - 14.8 - - - - - - -
25/04:30am 13.3 NW 11 16 1001.3 - 14.8 - - - - - - -
25/04:00am 13.1 NW 13 17 1001.3 - 14.8 - - - - - - -
25/03:30am 12.8 WNW 13 18 1001.5 - 14.8 - - - - - - -
25/03:00am 11.8 WNW 11 18 1001.5 - 14.8 - - - - - - -
25/02:30am 12.8 NW 13 18 1001.7 - 14.8 - - - - - - -
25/02:00am 13.0 NW 15 20 1001.8 - 14.8 - - - - - - -
25/01:30am 12.7 NW 15 19 1002.1 - 14.8 - - - - - - -
25/01:00am 12.8 NW 15 18 1002.3 - 14.8 - - - - - - -
25/12:30am 12.4 NW 14 17 1002.5 - 14.8 - - - - - - -
25/12:00am 12.3 NNW 11 19 1002.6 - 14.6 Recent precip. - - - - - -
 
Date/Time
WST
Temp
°C
Wind Pressure Rain since
9am
mm
Weather Cloud Vis
km
Sea
Height
m
Swell
Dir  Spd
kts
Gust
kts
hPa Trend Height
m
Period
s
Dir
24/11:31pm 12.9 NNW 15 27 1002.5 - 14.2 - - - - - - -
24/11:30pm 12.9 NNW 14 26 1002.6 - 14.2 - - - - - - -
24/11:00pm 13.1 NNW 14 18 1003.2 - 14.2 - - - - - - -
24/10:30pm 12.7 NW 9 16 1003.5 - 14.2 - - - - - - -
24/10:00pm 12.3 NW 9 13 1003.9 - 14.2 - - - - - - -
24/09:30pm 12.3 NW 10 12 1004.2 - 14.2 - - - - - - -
24/09:00pm 11.9 WNW 11 14 1004.2 - 14.2 Rain - - - - - -
24/08:30pm 11.6 NW 8 12 1004.4 - 14.0 - - - - - - -
24/08:00pm 11.3 NW 11 16 1004.5 - 14.0 - - - - - - -
24/07:30pm 12.4 W 11 16 1004.4 - 13.8 - - - - - - -
24/07:00pm 11.6 W 8 12 1004.5 - 13.8 - - - - - - -
24/06:30pm 11.7 W 11 16 1004.5 - 13.8 - - - - - - -
24/06:05pm 11.1 WNW 19 33 1004.3 - 13.6 - - - - - - -
24/06:00pm 12.9 W 13 32 1004.2 - 12.8 - - - - - - -
24/05:30pm 14.0 WNW 14 19 1004.2 - 12.8 - - - - - - -
24/05:00pm 14.7 WNW 14 18 1003.9 - 12.8 - - - - - - -
24/04:30pm 14.9 WNW 14 19 1003.5 - 12.8 - - - - - - -
24/04:00pm 14.0 WNW 17 23 1004.0 - 12.8 - - - - - - -
24/03:30pm 14.5 WNW 13 17 1004.0 - 12.8 - - - - - - -
24/03:00pm 13.7 WNW 17 25 1003.9 - 12.8 Recent precip. - - - - - -
24/02:51pm 12.6 W 13 25 1003.9 - 12.8 - - - - - - -
24/02:39pm 11.8 NW 14 25 1004.3 - 12.0 - - - - - - -
24/02:32pm 12.6 N 14 25 1003.8 - 10.6 - - - - - - -
24/02:30pm 13.1 N 12 25 1003.8 - 10.4 - - - - - - -
24/02:00pm 13.3 N 6 8 1004.4 - 10.0 - - - - - - -
24/01:30pm 12.5 N 8 11 1004.7 - 7.2 - - - - - - -
24/01:00pm 11.8 N 10 15 1005.6 - 6.0 - - - - - - -
24/12:30pm 12.6 NNW 14 19 1005.7 - 2.0 - - - - - - -
24/12:00pm 13.9 N 10 13 1005.8 - 0.2 Rain - - - - - -
24/11:30am 14.7 N 9 12 1006.0 - 0.0 - - - - - - -
24/11:00am 15.4 N 9 13 1006.2 - 0.0 - - - - - - -
24/10:30am 15.0 N 8 10 1006.7 - 0.0 - - - - - - -
24/10:00am 14.9 N 7 9 1007.0 - 0.0 - - - - - - -
24/09:30am 15.0 N 8 10 1007.2 - 0.0 - - - - - - -
24/09:00am 15.0 NNE 7 9 1007.5 - 28.0 - - - - - - -
24/08:30am 14.5 NNE 6 8 1007.6 - 28.0 - - - - - - -
24/08:00am 14.3 NNE 4 7 1007.5 - 28.0 - - - - - - -
24/07:30am 13.2 NNE 4 5 1007.5 - 28.0 - - - - - - -
24/07:00am 13.0 NNE 3 4 1007.4 - 28.0 - - - - - - -
24/06:30am 11.8 NNE 4 5 1007.4 - 28.0 - - - - - - -
24/06:00am 11.6 NNE 4 5 1007.5 - 28.0 - - - - - - -
24/05:30am 11.5 NNE 5 5 1007.6 - 28.0 - - - - - - -
24/05:00am 10.9 NNE 5 6 1007.7 - 28.0 - - - - - - -
24/04:30am 10.7 NNE 5 6 1007.8 - 27.8 - - - - - - -
24/04:00am 9.9 NNE 6 9 1008.0 - 26.4 - - - - - - -
24/03:46am 9.7 NE 10 26 1008.0 - 22.6 - - - - - - -
24/03:30am 11.4 WSW 12 16 1008.0 - 1.6 - - - - - - -
24/03:00am 11.8 WSW 11 14 1008.1 - 0.6 Rain - - - - - -
24/02:30am 12.4 WSW 9 13 1008.5 - 0.4 - - - - - - -
24/02:00am 12.0 WSW 7 11 1008.9 - 0.4 - - - - - - -
24/01:30am 12.1 WSW 7 8 1009.4 - 0.4 - - - - - - -
24/01:00am 12.7 WSW 6 7 1009.7 - 0.4 - - - - - - -
24/12:30am 12.6 WSW 5 5 1010.0 - 0.4 - - - - - - -
24/12:00am 12.2 WSW 6 6 1010.2 - 0.4 - - - - - - -
 
Date/Time
WST
Temp
°C
Wind Pressure Rain since
9am
mm
Weather Cloud Vis
km
Sea
Height
m
Swell
Dir  Spd
kts
Gust
kts
hPa Trend Height
m
Period
s
Dir
23/11:30pm 12.7 WSW 4 5 1010.5 - 0.4 - - - - - - -
23/11:00pm 12.4 WSW 4 6 1011.1 - 0.4 - - - - - - -
23/10:30pm 12.4 SW 6 7 1011.4 - 0.4 - - - - - - -
23/10:00pm 12.5 SW 7 9 1011.7 - 0.4 - - - - - - -
23/09:30pm 13.3 WSW 5 6 1011.9 - 0.4 - - - - - - -
23/09:00pm 13.5 WSW 4 5 1012.3 - 0.4 - - - - - - -
23/08:30pm 13.4 WSW 5 6 1012.5 - 0.4 - - - - - - -
23/08:00pm 13.6 WSW 7 8 1012.6 - 0.4 - - - - - - -
23/07:30pm 13.4 WSW 6 7 1012.6 - 0.4 - - - - - - -
23/07:00pm 13.6 WSW 5 7 1012.6 - 0.4 - - - - - - -
23/06:30pm 13.8 WSW 7 9 1012.7 - 0.4 - - - - - - -
23/06:00pm 14.2 WSW 7 10 1012.8 - 0.4 - - - - - - -
23/05:30pm 14.4 WSW 10 13 1012.8 - 0.4 - - - - - - -
23/05:00pm 14.9 WSW 9 11 1012.8 - 0.4 - - - - - - -
23/04:30pm 15.0 WSW 10 13 1012.8 - 0.4 - - - - - - -
23/04:00pm 15.2 WSW 11 14 1012.7 - 0.4 - - - - - - -
23/03:30pm 15.8 SW 11 15 1012.4 - 0.4 - - - - - - -
23/03:00pm 15.4 SW 12 16 1012.4 - 0.4 - - - - - - -
23/02:30pm 15.2 SW 11 15 1012.4 - 0.4 - - - - - - -
23/02:00pm 16.7 SW 13 17 1012.6 - 0.4 - - - - - - -
23/01:30pm 15.9 SW 16 20 1012.6 - 0.4 - - - - - - -
23/01:00pm 16.0 SW 13 19 1012.7 - 0.4 - - - - - - -
23/12:30pm 14.6 SW 14 18 1013.1 - 0.4 - - - - - - -
23/12:00pm 14.6 SW 15 21 1013.0 - 0.2 - - - - - - -
23/11:30am 14.2 SW 10 14 1013.5 - 0.2 - - - - - - -
23/11:00am 15.7 SW 15 18 1013.4 - 0.2 - - - - - - -
23/10:30am 14.6 SW 16 21 1013.3 - 0.2 - - - - - - -
23/10:06am 13.4 WSW 16 26 1013.2 - 0.2 - - - - - - -
23/10:00am 13.2 WSW 16 22 1013.5 - 0.2 - - - - - - -
23/09:30am 15.2 SW 18 25 1013.1 - 0.0 - - - - - - -
23/09:00am 14.3 WSW 16 22 1013.0 - 2.8 - - - - - - -
23/08:30am 13.5 SW 17 23 1012.8 - 2.8 - - - - - - -
23/08:00am 12.9 SW 21 27 1012.6 - 2.8 - - - - - - -
23/07:47am 13.1 SW 18 28 1012.3 - 2.8 - - - - - - -
23/07:30am 13.1 WSW 19 24 1012.1 - 2.8 - - - - - - -
23/07:00am 12.6 SW 19 27 1011.8 - 2.8 - - - - - - -
23/06:31am 12.8 SW 20 30 1011.4 - 2.2 - - - - - - -
23/06:30am 13.2 SW 19 27 1011.4 - 2.2 - - - - - - -
23/06:00am 12.6 SW 20 26 1011.1 - 2.2 - - - - - - -
23/05:52am 12.2 SW 23 32 1011.0 - 2.2 - - - - - - -
23/05:44am 13.1 WSW 18 29 1010.9 - 2.2 - - - - - - -
23/05:30am 12.2 WSW 15 21 1011.1 - 2.2 - - - - - - -
23/05:20am 12.1 W 20 30 1011.1 - 2.2 - - - - - - -
23/05:13am 12.4 WSW 21 30 1010.9 - 2.2 - - - - - - -
23/05:00am 12.3 WSW 21 30 1011.1 - 2.2 - - - - - - -
23/04:45am 12.3 WSW 23 35 1010.8 - 2.2 - - - - - - -
23/04:34am 11.3 WSW 15 25 1010.8 - 2.2 - - - - - - -
23/04:30am 10.9 WSW 18 26 1010.8 - 2.2 - - - - - - -
23/04:17am 12.5 WSW 16 26 1010.9 - 1.6 - - - - - - -
23/04:00am 13.8 WSW 15 21 1010.6 - 1.4 - - - - - - -
23/03:30am 13.7 SW 19 23 1010.8 - 1.4 - - - - - - -
23/03:00am 14.1 SW 19 25 1010.5 - 1.4 - - - - - - -
23/02:30am 14.1 SW 20 25 1010.7 - 1.4 - - - - - - -

Other Formats:

Comma delimited format used in spreadsheet applications
http://www.bom.gov.au/fwo/IDW60701/IDW60701.94602.axf

JavaScript Object Notation format (JSON) in row-major order
http://www.bom.gov.au/fwo/IDW60701/IDW60701.94602.json